createdAt,value
2018-06-15T00:02:26.693Z,11.70
2018-06-15T00:04:54.758Z,8.77
2018-06-15T00:07:22.290Z,9.70
2018-06-15T00:09:50.012Z,10.03
2018-06-15T00:12:17.700Z,9.80
2018-06-15T00:14:45.352Z,9.27
2018-06-15T00:17:13.024Z,9.13
2018-06-15T00:19:40.603Z,9.07
2018-06-15T00:22:08.284Z,8.60
2018-06-15T00:24:35.910Z,8.13
2018-06-15T00:27:03.470Z,7.90
2018-06-15T00:29:31.044Z,9.27
2018-06-15T00:31:58.554Z,9.23
2018-06-15T00:34:26.132Z,7.73
2018-06-15T00:36:53.824Z,10.03
2018-06-15T00:39:21.463Z,8.20
2018-06-15T00:41:49.081Z,8.20
2018-06-15T00:44:16.879Z,8.20
2018-06-15T00:46:44.474Z,7.90
2018-06-15T00:49:12.073Z,7.77
2018-06-15T00:51:39.861Z,9.03
2018-06-15T00:54:07.531Z,9.10
2018-06-15T00:56:45.191Z,9.20
2018-06-15T00:59:12.918Z,9.27
2018-06-15T01:01:40.626Z,8.70
2018-06-15T01:04:08.230Z,8.97
2018-06-15T01:06:36.140Z,9.70
2018-06-15T01:09:06.354Z,9.13
2018-06-15T01:11:33.941Z,8.73
2018-06-15T01:14:01.672Z,9.23
2018-06-15T01:16:29.288Z,10.43
2018-06-15T01:18:56.962Z,9.27
2018-06-15T01:21:24.750Z,9.67
2018-06-15T01:23:52.596Z,10.63
2018-06-15T01:26:20.238Z,11.53
2018-06-15T01:28:47.884Z,10.07
2018-06-15T01:31:15.469Z,10.67
2018-06-15T01:33:43.170Z,9.97
2018-06-15T01:36:10.811Z,8.53
2018-06-15T01:38:38.585Z,9.90
2018-06-15T01:41:06.247Z,10.90
2018-06-15T01:43:33.862Z,10.30
2018-06-15T01:46:01.475Z,10.90
2018-06-15T01:48:29.062Z,9.90
2018-06-15T01:50:56.643Z,11.27
2018-06-15T01:53:24.378Z,10.87
2018-06-15T01:55:51.919Z,11.27
2018-06-15T01:58:19.575Z,11.37
2018-06-15T02:00:47.341Z,11.10
2018-06-15T02:03:15.118Z,11.10
2018-06-15T02:05:44.099Z,12.10
2018-06-15T02:08:11.779Z,11.80
2018-06-15T02:10:39.424Z,11.57
2018-06-15T02:13:07.122Z,10.57
2018-06-15T02:15:35.148Z,11.43
2018-06-15T02:18:02.746Z,11.53
2018-06-15T02:20:31.287Z,11.40
2018-06-15T02:22:59.290Z,10.47
2018-06-15T02:25:26.862Z,11.97
2018-06-15T02:27:54.435Z,11.10
2018-06-15T02:30:22.015Z,10.83
2018-06-15T02:32:49.633Z,10.37
2018-06-15T02:35:17.165Z,10.33
2018-06-15T02:37:45.091Z,10.40
2018-06-15T02:40:12.694Z,10.57
2018-06-15T02:42:40.253Z,9.53
2018-06-15T02:45:07.815Z,9.80
2018-06-15T02:47:35.371Z,11.60
2018-06-15T02:50:03.144Z,10.10
2018-06-15T02:52:30.724Z,8.27
2018-06-15T02:54:58.408Z,9.10
2018-06-15T02:57:26.019Z,8.50
2018-06-15T02:59:53.686Z,8.70
2018-06-15T03:02:21.357Z,8.43
2018-06-15T03:04:48.869Z,8.90
2018-06-15T03:07:17.099Z,10.50
2018-06-15T03:09:44.694Z,9.93
2018-06-15T03:12:12.244Z,8.90
2018-06-15T03:14:39.842Z,8.90
2018-06-15T03:17:08.352Z,9.80
2018-06-15T03:19:36.119Z,9.37
2018-06-15T03:22:03.704Z,9.50
2018-06-15T03:24:31.729Z,9.30
2018-06-15T03:26:59.336Z,8.83
2018-06-15T03:29:26.940Z,9.90
2018-06-15T03:31:54.732Z,8.93
2018-06-15T03:34:22.548Z,9.40
2018-06-15T03:36:51.085Z,9.50
2018-06-15T03:39:18.647Z,9.37
2018-06-15T03:41:46.260Z,8.87
2018-06-15T03:44:13.882Z,9.20
2018-06-15T03:46:41.528Z,9.30
2018-06-15T03:49:09.106Z,9.60
2018-06-15T03:51:36.753Z,9.50
2018-06-15T03:54:04.418Z,10.47
2018-06-15T03:56:32.090Z,10.20
2018-06-15T03:58:59.702Z,8.23
2018-06-15T04:01:27.458Z,8.53
2018-06-15T04:03:55.375Z,9.70
2018-06-15T04:06:23.036Z,9.33
2018-06-15T04:08:51.406Z,10.13
2018-06-15T04:11:19.660Z,10.13
2018-06-15T04:13:47.303Z,9.43
2018-06-15T04:16:14.918Z,10.23
2018-06-15T04:18:42.522Z,9.47
2018-06-15T04:21:10.149Z,10.10
2018-06-15T04:23:37.851Z,8.60
2018-06-15T04:26:05.857Z,9.63
2018-06-15T04:28:33.453Z,10.00
2018-06-15T04:31:01.131Z,9.53
2018-06-15T04:33:28.861Z,8.87
2018-06-15T04:35:56.523Z,9.27
2018-06-15T04:38:25.278Z,10.33
2018-06-15T04:40:52.909Z,9.27
2018-06-15T04:43:20.567Z,9.80
2018-06-15T04:45:48.084Z,9.97
2018-06-15T04:48:15.761Z,10.40
2018-06-15T04:50:43.431Z,10.23
2018-06-15T04:53:11.054Z,10.63
2018-06-15T04:55:39.198Z,10.60
2018-06-15T04:58:06.988Z,9.63
2018-06-15T05:00:34.961Z,8.50
2018-06-15T05:03:02.620Z,8.80
2018-06-15T05:05:30.281Z,8.80
2018-06-15T05:07:58.443Z,10.47
2018-06-15T05:10:26.261Z,9.57
2018-06-15T05:12:54.224Z,8.87
2018-06-15T05:15:21.895Z,9.10
2018-06-15T05:17:49.543Z,8.90
2018-06-15T05:20:17.218Z,10.67
2018-06-15T05:22:44.895Z,10.20
2018-06-15T05:25:12.435Z,10.00
2018-06-15T05:27:41.231Z,9.23
2018-06-15T05:30:09.672Z,11.00
2018-06-15T05:32:37.796Z,8.67
2018-06-15T05:35:05.615Z,10.07
2018-06-15T05:37:33.371Z,9.07
2018-06-15T05:40:00.993Z,9.10
2018-06-15T05:42:28.824Z,10.30
2018-06-15T05:45:00.964Z,8.97
2018-06-15T05:47:30.065Z,10.30
2018-06-15T05:49:58.124Z,8.30
2018-06-15T05:52:27.266Z,9.27
2018-06-15T05:54:56.242Z,9.80
2018-06-15T05:57:24.111Z,9.50
2018-06-15T06:02:28.107Z,8.10
2018-06-15T06:04:58.140Z,8.53
2018-06-15T06:07:27.085Z,8.10
2018-06-15T06:10:02.599Z,9.00
2018-06-15T06:12:32.934Z,9.27
2018-06-15T06:15:01.870Z,9.47
2018-06-15T06:17:30.436Z,8.47
2018-06-15T06:19:59.345Z,9.13
2018-06-15T06:22:29.142Z,8.03
2018-06-15T06:24:57.725Z,7.80
2018-06-15T06:27:26.051Z,8.37
2018-06-15T06:29:54.727Z,8.67
2018-06-15T06:35:07.250Z,8.33
2018-06-15T06:37:35.072Z,9.50
2018-06-15T06:40:04.753Z,9.20
2018-06-15T06:42:33.107Z,7.80
2018-06-15T06:45:01.693Z,8.10
2018-06-15T06:47:31.548Z,10.43
2018-06-15T06:50:05.492Z,8.80
2018-06-15T06:52:38.385Z,9.00
2018-06-15T06:55:07.964Z,7.93
2018-06-15T06:57:35.796Z,7.80
2018-06-15T07:00:09.561Z,8.00
2018-06-15T07:02:37.404Z,7.80
2018-06-15T07:05:05.706Z,7.40
2018-06-15T07:07:37.501Z,7.93
2018-06-15T07:10:06.988Z,8.40
2018-06-15T07:12:36.592Z,6.80
2018-06-15T07:15:05.875Z,8.27
2018-06-15T07:17:34.092Z,8.03
2018-06-15T07:20:02.548Z,8.00
2018-06-15T07:22:31.774Z,7.73
2018-06-15T07:25:00.024Z,7.97
2018-06-15T07:27:28.406Z,7.50
2018-06-15T07:29:56.006Z,7.73
2018-06-15T07:32:27.308Z,7.63
2018-06-15T07:34:55.925Z,8.20
2018-06-15T07:37:24.071Z,7.10
2018-06-15T07:39:51.650Z,7.43
2018-06-15T07:42:19.640Z,7.93
2018-06-15T07:44:47.229Z,8.57
2018-06-15T07:47:16.312Z,6.53
2018-06-15T07:49:44.298Z,7.33
2018-06-15T07:52:12.083Z,7.83
2018-06-15T07:54:39.999Z,6.87
2018-06-15T07:57:07.708Z,7.30
2018-06-15T07:59:35.417Z,6.90
2018-06-15T08:02:03.086Z,6.40
2018-06-15T08:04:30.853Z,5.80
2018-06-15T08:06:59.103Z,5.73
2018-06-15T08:09:26.877Z,6.27
2018-06-15T08:11:54.619Z,6.03
2018-06-15T08:14:22.515Z,5.33
2018-06-15T08:16:50.143Z,5.90
2018-06-15T08:19:17.743Z,7.20
2018-06-15T08:21:47.390Z,6.80
2018-06-15T08:24:15.716Z,6.10
2018-06-15T08:26:43.451Z,6.40
2018-06-15T08:29:11.131Z,6.70
2018-06-15T08:31:39.805Z,6.80
2018-06-15T08:34:07.704Z,6.70
2018-06-15T08:36:35.819Z,6.47
2018-06-15T08:39:06.395Z,5.93
2018-06-15T08:41:34.493Z,5.23
2018-06-15T08:44:02.382Z,5.60
2018-06-15T08:46:30.072Z,5.30
2018-06-15T08:48:57.710Z,5.37
2018-06-15T08:51:25.475Z,4.60
2018-06-15T08:53:53.964Z,4.83
2018-06-15T08:56:22.697Z,4.70
2018-06-15T08:58:51.325Z,5.53
2018-06-15T09:01:20.383Z,4.93
2018-06-15T09:03:48.266Z,4.50
2018-06-15T09:06:15.956Z,5.67
2018-06-15T09:08:43.899Z,5.33
2018-06-15T09:11:12.103Z,6.67
2018-06-15T09:13:39.714Z,5.60
2018-06-15T09:16:07.701Z,4.90
2018-06-15T09:18:35.327Z,5.50
2018-06-15T09:21:02.971Z,5.03
2018-06-15T09:23:30.956Z,5.63
2018-06-15T09:25:58.643Z,5.03
2018-06-15T09:28:26.271Z,5.17
2018-06-15T09:30:54.158Z,4.10
2018-06-15T09:33:21.728Z,5.00
2018-06-15T09:35:50.475Z,4.83
2018-06-15T09:38:18.049Z,4.80
2018-06-15T09:40:46.623Z,3.80
2018-06-15T09:43:14.330Z,4.30
2018-06-15T09:45:42.088Z,3.83
2018-06-15T09:48:09.753Z,3.80
2018-06-15T09:50:38.522Z,4.93
2018-06-15T09:53:06.424Z,4.83
2018-06-15T09:55:34.206Z,6.57
2018-06-15T09:58:01.762Z,3.80
2018-06-15T10:00:34.989Z,3.73
2018-06-15T10:03:06.381Z,3.50
2018-06-15T10:05:35.476Z,4.33
2018-06-15T10:08:03.675Z,3.70
2018-06-15T10:10:32.673Z,4.20
2018-06-15T10:13:01.128Z,4.10
2018-06-15T10:15:29.609Z,4.50
2018-06-15T10:17:57.747Z,4.80
2018-06-15T10:20:25.405Z,4.20
2018-06-15T10:22:54.746Z,4.10
2018-06-15T10:25:22.922Z,3.80
2018-06-15T10:27:53.557Z,3.43
2018-06-15T10:30:36.402Z,4.53
2018-06-15T10:33:06.024Z,3.50
2018-06-15T10:35:36.004Z,4.00
2018-06-15T10:38:07.655Z,3.80
2018-06-15T10:43:37.198Z,3.90
2018-06-15T10:46:05.930Z,4.67
2018-06-15T10:48:34.038Z,4.50
2018-06-15T10:51:04.153Z,4.60
2018-06-15T10:53:35.303Z,4.77
2018-06-15T10:56:11.272Z,4.20
2018-06-15T10:58:39.127Z,4.50
2018-06-15T11:01:07.086Z,3.57
2018-06-15T11:03:36.744Z,4.07
2018-06-15T11:06:08.088Z,4.10
2018-06-15T11:08:36.633Z,4.80
2018-06-15T11:11:06.844Z,3.80
2018-06-15T11:13:38.495Z,4.20
2018-06-15T11:16:08.509Z,4.60
2018-06-15T11:18:37.353Z,4.60
2018-06-15T11:21:06.315Z,4.00
2018-06-15T11:23:37.562Z,4.57
2018-06-15T11:26:07.250Z,4.13
2018-06-15T11:28:35.152Z,4.80
2018-06-15T11:31:02.875Z,4.20
2018-06-15T11:33:30.666Z,4.40
2018-06-15T11:35:58.694Z,4.50
2018-06-15T11:38:26.260Z,4.80
2018-06-15T11:40:53.874Z,4.50
2018-06-15T11:43:21.423Z,3.90
2018-06-15T11:45:48.927Z,4.40
2018-06-15T11:48:16.506Z,4.30
2018-06-15T11:50:44.309Z,4.33
2018-06-15T11:53:12.134Z,4.57
2018-06-15T11:55:39.811Z,3.90
2018-06-15T11:58:07.838Z,4.80
2018-06-15T12:00:35.544Z,4.20
2018-06-15T12:03:03.587Z,4.73
2018-06-15T12:05:31.229Z,4.20
2018-06-15T12:07:58.937Z,3.83
2018-06-15T12:10:26.548Z,4.17
2018-06-15T12:12:54.483Z,4.93
2018-06-15T12:15:23.072Z,4.33
2018-06-15T12:17:51.489Z,5.80
2018-06-15T12:20:22.035Z,4.80
2018-06-15T12:22:49.914Z,5.00
2018-06-15T12:25:21.496Z,4.00
2018-06-15T12:27:50.378Z,4.80
2018-06-15T12:30:19.333Z,4.87
2018-06-15T12:32:48.112Z,4.50
2018-06-15T12:35:15.960Z,4.97
2018-06-15T12:37:45.361Z,5.23
2018-06-15T12:40:13.405Z,5.00
2018-06-15T12:42:41.601Z,5.00
2018-06-15T12:45:11.162Z,5.00
2018-06-15T12:47:39.066Z,6.27
2018-06-15T12:50:06.697Z,5.23
2018-06-15T12:52:34.417Z,4.80
2018-06-15T12:55:02.023Z,4.93
2018-06-15T12:57:29.692Z,4.70
2018-06-15T12:59:57.367Z,4.50
2018-06-15T13:02:30.177Z,4.63
2018-06-15T13:04:58.523Z,5.10
2018-06-15T13:07:26.204Z,5.10
2018-06-15T13:09:53.908Z,5.33
2018-06-15T13:12:21.635Z,5.13
2018-06-15T13:14:58.090Z,5.67
2018-06-15T13:17:25.996Z,5.30
2018-06-15T13:19:53.805Z,5.00
2018-06-15T13:22:22.416Z,5.57
2018-06-15T13:24:50.028Z,5.53
2018-06-15T13:27:18.346Z,5.90
2018-06-15T13:29:51.834Z,6.27
2018-06-15T13:32:19.532Z,5.40
2018-06-15T13:34:47.325Z,5.83
2018-06-15T13:37:15.110Z,5.23
2018-06-15T13:39:42.943Z,5.47
2018-06-15T13:42:11.266Z,4.80
2018-06-15T13:44:38.910Z,6.23
2018-06-15T13:47:06.663Z,7.03
2018-06-15T13:49:34.827Z,6.50
2018-06-15T13:52:02.497Z,5.30
2018-06-15T13:54:32.936Z,4.80
2018-06-15T13:57:03.676Z,6.57
2018-06-15T13:59:31.855Z,5.33
2018-06-15T14:02:00.227Z,5.20
2018-06-15T14:04:30.453Z,7.90
2018-06-15T14:07:04.647Z,5.90
2018-06-15T14:09:35.793Z,5.80
2018-06-15T14:12:04.786Z,5.50
2018-06-15T14:14:35.592Z,6.33
2018-06-15T14:17:04.397Z,6.10
2018-06-15T14:19:34.296Z,5.20
2018-06-15T14:22:03.555Z,7.23
2018-06-15T14:24:33.432Z,6.07
2018-06-15T14:27:02.495Z,6.10
2018-06-15T14:29:33.930Z,4.87
2018-06-15T14:35:01.608Z,5.27
2018-06-15T14:37:34.863Z,5.60
2018-06-15T14:40:04.781Z,5.10
2018-06-15T14:45:36.255Z,5.57
2018-06-15T14:48:04.877Z,5.10
2018-06-15T14:50:37.544Z,4.33
2018-06-15T14:53:05.391Z,5.80
2018-06-15T14:55:35.138Z,5.90
2018-06-15T14:58:03.604Z,5.17
2018-06-15T15:03:34.905Z,5.87
2018-06-15T15:06:05.679Z,5.00
2018-06-15T15:08:35.213Z,5.53
2018-06-15T15:14:05.917Z,5.20
2018-06-15T15:16:34.861Z,5.53
2018-06-15T15:19:03.057Z,5.40
2018-06-15T15:21:35.292Z,5.40
2018-06-15T15:24:03.370Z,5.77
2018-06-15T15:26:33.139Z,5.60
2018-06-15T15:29:03.436Z,5.60
2018-06-15T15:31:33.907Z,6.03
2018-06-15T15:34:03.116Z,5.83
2018-06-15T15:36:32.534Z,5.30
2018-06-15T15:39:03.957Z,6.17
2018-06-15T15:44:50.944Z,6.20
2018-06-15T15:47:22.658Z,6.50
2018-06-15T15:49:51.834Z,5.80
2018-06-15T15:52:22.386Z,5.57
2018-06-15T15:54:52.118Z,5.33
2018-06-15T15:57:21.188Z,5.93
2018-06-15T15:59:51.290Z,7.10
2018-06-15T16:02:20.685Z,6.30
2018-06-15T16:04:49.898Z,6.50
2018-06-15T16:07:17.784Z,6.07
2018-06-15T16:09:47.165Z,6.00
2018-06-15T16:12:17.689Z,5.97
2018-06-15T16:14:49.018Z,5.70
2018-06-15T16:17:20.196Z,6.33
2018-06-15T16:19:48.388Z,5.93
2018-06-15T16:22:18.921Z,6.10
2018-06-15T16:24:53.006Z,5.47
2018-06-15T16:27:21.671Z,5.23
2018-06-15T16:29:51.352Z,5.20
2018-06-15T16:32:20.665Z,5.37
2018-06-15T16:34:50.722Z,4.20
2018-06-15T16:37:21.088Z,5.03
2018-06-15T16:39:50.877Z,5.10
2018-06-15T16:42:21.067Z,5.03
2018-06-15T16:44:50.390Z,5.00
2018-06-15T16:47:20.242Z,5.67
2018-06-15T16:49:49.272Z,5.07
2018-06-15T16:52:22.638Z,5.00
2018-06-15T16:54:51.492Z,5.67
2018-06-15T16:57:19.857Z,6.60
2018-06-15T16:59:48.276Z,5.13
2018-06-15T17:02:17.835Z,5.10
2018-06-15T17:04:51.034Z,6.00
2018-06-15T17:07:20.160Z,5.43
2018-06-15T17:09:49.399Z,5.33
2018-06-15T17:12:18.327Z,5.77
2018-06-15T17:14:46.168Z,5.70
2018-06-15T17:17:14.095Z,6.00
2018-06-15T17:19:42.103Z,5.70
2018-06-15T17:22:09.928Z,6.83
2018-06-15T17:24:38.103Z,5.57
2018-06-15T17:27:06.839Z,5.00
2018-06-15T17:29:35.089Z,5.87
2018-06-15T17:32:03.390Z,6.13
2018-06-15T17:34:31.375Z,6.33
2018-06-15T17:37:03.128Z,5.73
2018-06-15T17:39:31.123Z,6.83
2018-06-15T17:42:00.959Z,6.20
2018-06-15T17:44:31.702Z,5.27
2018-06-15T17:47:00.128Z,5.00
2018-06-15T17:49:28.652Z,5.20
2018-06-15T17:51:56.573Z,6.40
2018-06-15T17:54:24.411Z,5.17
2018-06-15T17:56:52.147Z,4.80
2018-06-15T17:59:19.874Z,5.90
2018-06-15T18:01:47.616Z,5.57
2018-06-15T18:04:15.896Z,5.37
2018-06-15T18:06:44.816Z,5.00
2018-06-15T18:09:13.923Z,5.40
2018-06-15T18:11:43.876Z,5.20
2018-06-15T18:14:12.495Z,5.77
2018-06-15T18:16:40.756Z,5.20
2018-06-15T18:19:09.167Z,5.90
2018-06-15T18:21:39.418Z,6.47
2018-06-15T18:24:08.205Z,5.23
2018-06-15T18:26:39.378Z,5.93
2018-06-15T18:29:08.665Z,4.90
2018-06-15T18:31:37.113Z,5.70
2018-06-15T18:34:07.187Z,5.70
2018-06-15T18:36:36.768Z,4.77
2018-06-15T18:39:08.075Z,5.53
2018-06-15T18:41:36.513Z,5.40
2018-06-15T18:44:05.324Z,5.93
2018-06-15T18:46:33.510Z,5.43
2018-06-15T18:49:01.678Z,5.40
2018-06-15T18:51:30.533Z,5.27
2018-06-15T18:53:59.385Z,4.80
2018-06-15T18:56:28.184Z,5.27
2018-06-15T18:58:56.390Z,5.43
2018-06-15T19:01:24.413Z,5.60
2018-06-15T19:03:52.700Z,5.20
2018-06-15T19:06:21.414Z,5.90
2018-06-15T19:08:49.931Z,5.50
2018-06-15T19:11:18.086Z,5.13
2018-06-15T19:13:46.487Z,4.87
2018-06-15T19:16:15.534Z,5.47
2018-06-15T19:18:43.823Z,5.97
2018-06-15T19:21:11.964Z,5.17
2018-06-15T19:23:40.236Z,5.40
2018-06-15T19:26:08.362Z,6.07
2018-06-15T19:28:36.973Z,6.30
2018-06-15T19:31:05.325Z,4.80
2018-06-15T19:33:34.176Z,5.37
2018-06-15T19:36:02.707Z,6.07
2018-06-15T19:38:33.092Z,6.60
2018-06-15T19:41:09.472Z,6.70
2018-06-15T19:43:39.406Z,6.10
2018-06-15T19:46:09.844Z,5.93
2018-06-15T19:48:39.544Z,6.40
2018-06-15T19:51:09.002Z,6.17
2018-06-15T19:53:39.504Z,6.20
2018-06-15T19:56:08.166Z,6.70
2018-06-15T19:58:37.924Z,6.50
2018-06-15T20:01:06.287Z,6.10
2018-06-15T20:03:34.633Z,6.77
2018-06-15T20:06:04.017Z,6.60
2018-06-15T20:08:35.376Z,6.70
2018-06-15T20:11:03.675Z,6.60
2018-06-15T20:13:34.608Z,6.73
2018-06-15T20:16:04.521Z,6.50
2018-06-15T20:18:35.824Z,6.83
2018-06-15T20:21:04.192Z,6.93
2018-06-15T20:23:32.316Z,7.30
2018-06-15T20:26:00.659Z,6.27
2018-06-15T20:28:28.596Z,7.27
2018-06-15T20:30:56.813Z,6.27
2018-06-15T20:33:25.089Z,6.87
2018-06-15T20:35:53.478Z,6.53
2018-06-15T20:38:22.548Z,7.00
2018-06-15T20:40:51.789Z,7.07
2018-06-15T20:43:20.076Z,6.00
2018-06-15T20:45:48.184Z,6.90
2018-06-15T20:48:16.399Z,7.60
2018-06-15T20:50:44.594Z,6.67
2018-06-15T20:53:12.701Z,6.90
2018-06-15T20:55:40.854Z,6.57
2018-06-15T20:58:09.683Z,7.30
2018-06-15T21:00:37.812Z,7.17
2018-06-15T21:03:06.005Z,7.03
2018-06-15T21:05:34.714Z,7.40
2018-06-15T21:08:02.764Z,7.30
2018-06-15T21:10:33.155Z,6.50
2018-06-15T21:13:01.221Z,6.67
2018-06-15T21:15:29.351Z,7.57
2018-06-15T21:17:57.393Z,6.97
2018-06-15T21:20:25.707Z,7.17
2018-06-15T21:22:54.506Z,7.33
2018-06-15T21:25:22.679Z,7.17
2018-06-15T21:27:51.537Z,7.57
2018-06-15T21:30:20.355Z,6.63
2018-06-15T21:32:48.535Z,6.93
2018-06-15T21:35:16.580Z,7.40
2018-06-15T21:37:44.936Z,7.70
2018-06-15T21:40:12.948Z,6.93
2018-06-15T21:42:41.220Z,6.70
2018-06-15T21:45:09.776Z,8.33
2018-06-15T21:47:37.964Z,8.90
2018-06-15T21:50:06.851Z,8.23
2018-06-15T21:52:35.054Z,7.90
2018-06-15T21:55:03.179Z,7.50
2018-06-15T21:57:31.292Z,8.60
2018-06-15T21:59:59.642Z,8.13
2018-06-15T22:02:28.231Z,7.87
2018-06-15T22:04:56.554Z,10.43
2018-06-15T22:07:24.730Z,8.83
2018-06-15T22:09:53.026Z,8.47
2018-06-15T22:12:21.371Z,8.37
2018-06-15T22:14:51.115Z,8.23
2018-06-15T22:17:19.167Z,13.53
2018-06-15T22:19:48.940Z,24.00
2018-06-15T22:22:17.069Z,23.77
2018-06-15T22:24:45.183Z,15.90
2018-06-15T22:27:14.136Z,19.30
2018-06-15T22:29:42.971Z,8.57
2018-06-15T22:32:11.348Z,9.23
2018-06-15T22:34:39.758Z,9.20
2018-06-15T22:37:07.927Z,14.03
2018-06-15T22:39:35.968Z,8.73
2018-06-15T22:42:04.199Z,10.03
2018-06-15T22:44:32.318Z,8.87
2018-06-15T22:47:00.294Z,8.83
2018-06-15T22:49:28.460Z,8.57
2018-06-15T22:51:56.790Z,9.20
2018-06-15T22:54:24.903Z,11.03
2018-06-15T22:56:53.158Z,10.17
2018-06-15T22:59:21.304Z,8.77
2018-06-15T23:01:49.507Z,9.17
2018-06-15T23:04:18.373Z,8.70
2018-06-15T23:06:46.959Z,8.93
2018-06-15T23:09:17.530Z,9.27
2018-06-15T23:11:46.069Z,9.17
2018-06-15T23:14:14.322Z,10.90
2018-06-15T23:16:44.229Z,9.73
2018-06-15T23:19:12.973Z,9.00
2018-06-15T23:21:41.590Z,9.83
2018-06-15T23:24:10.541Z,8.30
2018-06-15T23:26:51.587Z,9.37
2018-06-15T23:29:20.939Z,8.90
2018-06-15T23:31:49.284Z,10.80
2018-06-15T23:34:17.499Z,10.93
2018-06-15T23:36:52.324Z,10.03
2018-06-15T23:39:22.757Z,9.50
2018-06-15T23:41:51.271Z,10.93
2018-06-15T23:44:20.668Z,9.93
2018-06-15T23:46:48.928Z,10.13
2018-06-15T23:49:17.207Z,9.97
2018-06-15T23:51:45.415Z,10.00
2018-06-15T23:54:13.639Z,10.67
2018-06-15T23:56:41.777Z,9.13
2018-06-15T23:59:10.049Z,10.93
